createdAt,value
2022-08-28T00:00:51.094Z,82.30
2022-08-28T00:01:51.084Z,81.39
2022-08-28T00:02:51.186Z,82.30
2022-08-28T00:03:51.049Z,81.76
2022-08-28T00:04:51.118Z,81.49
2022-08-28T00:05:51.035Z,82.30
2022-08-28T00:06:51.019Z,82.50
2022-08-28T00:07:51.040Z,82.40
2022-08-28T00:08:51.010Z,82.60
2022-08-28T00:09:50.993Z,82.50
2022-08-28T00:10:50.984Z,82.80
2022-08-28T00:11:50.975Z,82.30
2022-08-28T00:12:50.979Z,82.60
2022-08-28T00:13:50.951Z,82.90
2022-08-28T00:14:50.950Z,82.80
2022-08-28T00:15:51.005Z,82.70
2022-08-28T00:16:50.930Z,82.80
2022-08-28T00:17:50.922Z,82.60
2022-08-28T00:18:50.934Z,82.20
2022-08-28T00:19:50.919Z,82.70
2022-08-28T00:20:50.905Z,82.60
2022-08-28T00:21:50.878Z,82.40
2022-08-28T00:22:50.866Z,82.40
2022-08-28T00:23:50.862Z,82.40
2022-08-28T00:24:50.881Z,82.80
2022-08-28T00:25:50.842Z,83.00
2022-08-28T00:26:50.838Z,83.20
2022-08-28T00:27:50.823Z,83.51
2022-08-28T00:28:50.810Z,83.00
2022-08-28T00:29:50.829Z,82.40
2022-08-28T00:30:50.925Z,83.11
2022-08-28T00:31:50.796Z,83.51
2022-08-28T00:32:50.783Z,83.25
2022-08-28T00:33:50.774Z,83.65
2022-08-28T00:34:50.752Z,83.75
2022-08-28T00:35:50.758Z,83.81
2022-08-28T00:36:50.729Z,82.90
2022-08-28T00:37:50.736Z,83.81
2022-08-28T00:38:50.763Z,84.01
2022-08-28T00:39:50.719Z,83.65
2022-08-28T00:40:50.857Z,83.45
2022-08-28T00:41:50.694Z,83.20
2022-08-28T00:42:51.689Z,83.91
2022-08-28T00:43:50.703Z,83.40
2022-08-28T00:44:50.669Z,83.71
2022-08-28T00:45:50.659Z,83.54
2022-08-28T00:46:50.734Z,83.71
2022-08-28T00:47:50.629Z,83.40
2022-08-28T00:48:50.618Z,83.34
2022-08-28T00:49:50.630Z,82.54
2022-08-28T00:50:50.603Z,83.81
2022-08-28T00:51:50.592Z,84.01
2022-08-28T00:52:50.584Z,84.15
2022-08-28T00:53:50.598Z,84.31
2022-08-28T00:54:57.268Z,84.31
2022-08-28T00:55:50.578Z,84.41
2022-08-28T00:56:50.543Z,84.61
2022-08-28T00:57:50.539Z,84.31
2022-08-28T00:58:50.527Z,84.35
2022-08-28T00:59:50.511Z,84.45
2022-08-28T01:00:50.530Z,84.55
2022-08-28T01:01:50.551Z,84.55
2022-08-28T01:02:50.525Z,84.35
2022-08-28T01:03:50.504Z,84.45
2022-08-28T01:04:50.466Z,84.35
2022-08-28T01:05:50.468Z,84.25
2022-08-28T01:06:50.444Z,84.55
2022-08-28T01:07:50.450Z,84.35
2022-08-28T01:08:50.808Z,84.35
2022-08-28T01:09:50.408Z,84.25
2022-08-28T01:11:22.321Z,84.35
2022-08-28T01:11:50.425Z,84.35
2022-08-28T01:12:50.412Z,83.95
2022-08-28T01:13:50.379Z,84.25
2022-08-28T01:14:50.371Z,84.31
2022-08-28T01:15:50.418Z,84.31
2022-08-28T01:16:50.351Z,84.41
2022-08-28T01:17:50.348Z,84.41
2022-08-28T01:18:50.324Z,84.51
2022-08-28T01:19:50.322Z,84.41
2022-08-28T01:20:50.311Z,84.11
2022-08-28T01:21:50.328Z,83.95
2022-08-28T01:22:50.312Z,84.55
2022-08-28T01:23:50.305Z,84.25
2022-08-28T01:24:50.257Z,84.31
2022-08-28T01:25:50.280Z,84.41
2022-08-28T01:26:50.239Z,84.45
2022-08-28T01:27:50.230Z,85.16
2022-08-28T01:28:50.252Z,85.25
2022-08-28T01:29:50.216Z,85.66
2022-08-28T01:30:50.290Z,85.36
2022-08-28T01:31:50.191Z,85.16
2022-08-28T01:32:50.192Z,85.36
2022-08-28T01:33:50.199Z,85.36
2022-08-28T01:34:50.174Z,85.46
2022-08-28T01:35:50.156Z,85.56
2022-08-28T01:36:50.161Z,86.00
2022-08-28T01:37:50.158Z,85.76
2022-08-28T01:38:50.138Z,85.66
2022-08-28T01:39:50.145Z,85.66
2022-08-28T01:40:50.102Z,86.26
2022-08-28T01:41:50.135Z,85.66
2022-08-28T01:42:50.089Z,86.16
2022-08-28T01:43:50.093Z,85.66
2022-08-28T01:44:50.071Z,85.86
2022-08-28T01:45:50.066Z,85.96
2022-08-28T01:46:50.140Z,86.41
2022-08-28T01:47:51.307Z,85.86
2022-08-28T01:48:50.054Z,86.00
2022-08-28T01:49:50.003Z,86.06
2022-08-28T01:50:50.004Z,85.66
2022-08-28T01:51:50.036Z,86.06
2022-08-28T01:52:49.988Z,86.16
2022-08-28T01:53:49.981Z,86.26
2022-08-28T01:54:49.972Z,86.06
2022-08-28T01:55:49.952Z,85.86
2022-08-28T01:56:49.969Z,86.46
2022-08-28T01:57:49.959Z,85.86
2022-08-28T01:58:49.961Z,82.94
2022-08-28T01:59:49.938Z,82.44
2022-08-28T02:00:50.924Z,84.29
2022-08-28T02:01:49.982Z,85.56
2022-08-28T02:02:49.894Z,85.66
2022-08-28T02:03:49.900Z,85.25
2022-08-28T02:04:49.977Z,85.46
2022-08-28T02:05:49.866Z,85.66
2022-08-28T02:06:49.861Z,85.36
2022-08-28T02:07:49.844Z,85.56
2022-08-28T02:08:49.859Z,85.56
2022-08-28T02:09:49.844Z,85.56
2022-08-28T02:10:49.814Z,85.36
2022-08-28T02:11:49.820Z,85.66
2022-08-28T02:12:49.793Z,84.95
2022-08-28T02:13:50.845Z,84.95
2022-08-28T02:14:49.786Z,85.56
2022-08-28T02:15:49.833Z,85.36
2022-08-28T02:16:49.759Z,85.76
2022-08-28T02:17:49.747Z,85.46
2022-08-28T02:18:49.738Z,85.96
2022-08-28T02:19:49.744Z,85.56
2022-08-28T02:20:49.722Z,85.76
2022-08-28T02:21:49.730Z,85.76
2022-08-28T02:22:49.689Z,86.06
2022-08-28T02:23:49.772Z,85.56
2022-08-28T02:24:49.696Z,86.26
2022-08-28T02:25:49.826Z,85.66
2022-08-28T02:26:49.651Z,85.25
2022-08-28T02:27:49.657Z,85.31
2022-08-28T02:28:49.626Z,85.46
2022-08-28T02:29:50.624Z,85.16
2022-08-28T02:30:49.686Z,85.22
2022-08-28T02:31:49.608Z,84.65
2022-08-28T02:32:49.607Z,84.71
2022-08-28T02:33:49.588Z,84.41
2022-08-28T02:34:49.578Z,84.45
2022-08-28T02:35:49.589Z,84.91
2022-08-28T02:36:49.562Z,85.56
2022-08-28T02:37:49.552Z,85.42
2022-08-28T02:38:51.907Z,85.66
2022-08-28T02:39:49.545Z,85.42
2022-08-28T02:40:49.529Z,85.36
2022-08-28T02:41:49.517Z,85.52
2022-08-28T02:42:49.500Z,84.55
2022-08-28T02:43:49.485Z,84.31
2022-08-28T02:44:49.490Z,83.95
2022-08-28T02:45:49.505Z,84.31
2022-08-28T02:46:49.487Z,84.35
2022-08-28T02:47:49.439Z,84.21
2022-08-28T02:48:49.441Z,84.41
2022-08-28T02:49:49.436Z,84.01
2022-08-28T02:50:49.411Z,83.95
2022-08-28T02:51:49.408Z,82.40
2022-08-28T02:52:49.420Z,82.64
2022-08-28T02:53:49.422Z,82.80
2022-08-28T02:54:49.380Z,82.60
2022-08-28T02:55:49.374Z,81.73
2022-08-28T02:56:49.367Z,82.74
2022-08-28T02:57:49.354Z,83.34
2022-08-28T02:58:50.365Z,83.04
2022-08-28T02:59:49.337Z,82.24
2022-08-28T03:00:49.346Z,81.23
2022-08-28T03:01:49.370Z,80.83
2022-08-28T03:02:50.359Z,80.52
2022-08-28T03:03:49.292Z,81.13
2022-08-28T03:04:49.279Z,80.49
2022-08-28T03:05:49.289Z,79.72
2022-08-28T03:06:49.264Z,81.09
2022-08-28T03:07:49.259Z,81.39
2022-08-28T03:08:49.250Z,81.90
2022-08-28T03:09:49.240Z,82.10
2022-08-28T03:10:49.258Z,81.29
2022-08-28T03:11:49.241Z,81.29
2022-08-28T03:12:49.209Z,80.49
2022-08-28T03:13:49.204Z,79.22
2022-08-28T03:14:49.183Z,79.42
2022-08-28T03:15:51.972Z,79.82
2022-08-28T03:16:50.244Z,80.29
2022-08-28T03:17:49.169Z,79.58
2022-08-28T03:18:49.151Z,78.47
2022-08-28T03:19:49.146Z,78.58
2022-08-28T03:20:49.137Z,78.27
2022-08-28T03:21:49.131Z,78.47
2022-08-28T03:22:49.125Z,79.28
2022-08-28T03:23:49.099Z,78.47
2022-08-28T03:24:49.102Z,78.17
2022-08-28T03:25:49.099Z,78.38
2022-08-28T03:26:49.082Z,77.87
2022-08-28T03:27:49.057Z,78.17
2022-08-28T03:28:49.031Z,77.50
2022-08-28T03:29:49.028Z,78.47
2022-08-28T03:30:49.090Z,78.47
2022-08-28T03:31:49.042Z,78.47
2022-08-28T03:32:49.016Z,78.47
2022-08-28T03:33:48.998Z,77.67
2022-08-28T03:34:49.001Z,77.57
2022-08-28T03:35:48.991Z,77.40
2022-08-28T03:36:49.032Z,77.47
2022-08-28T03:37:48.962Z,78.58
2022-08-28T03:38:48.941Z,77.47
2022-08-28T03:39:48.945Z,77.87
2022-08-28T03:40:48.921Z,77.47
2022-08-28T03:41:48.940Z,78.27
2022-08-28T03:42:53.335Z,77.57
2022-08-28T03:43:48.905Z,77.27
2022-08-28T03:44:48.897Z,77.57
2022-08-28T03:45:48.906Z,77.37
2022-08-28T03:46:48.910Z,78.07
2022-08-28T03:47:48.857Z,77.67
2022-08-28T03:48:48.857Z,77.97
2022-08-28T03:49:48.834Z,78.67
2022-08-28T03:50:49.000Z,78.27
2022-08-28T03:51:48.861Z,77.37
2022-08-28T03:52:48.803Z,77.67
2022-08-28T03:53:48.821Z,77.87
2022-08-28T03:54:48.814Z,77.87
2022-08-28T03:55:48.781Z,78.31
2022-08-28T03:56:48.771Z,78.71
2022-08-28T03:57:48.763Z,78.41
2022-08-28T03:58:48.774Z,79.11
2022-08-28T03:59:48.729Z,78.41
2022-08-28T04:00:49.735Z,78.85
2022-08-28T04:01:48.789Z,78.85
2022-08-28T04:02:48.724Z,78.55
2022-08-28T04:03:48.724Z,78.51
2022-08-28T04:04:48.715Z,79.25
2022-08-28T04:05:48.679Z,79.22
2022-08-28T04:06:48.668Z,78.96
2022-08-28T04:07:48.661Z,78.91
2022-08-28T04:08:48.663Z,79.62
2022-08-28T04:09:48.661Z,78.55
2022-08-28T04:10:48.641Z,79.25
2022-08-28T04:11:48.615Z,79.16
2022-08-28T04:12:48.609Z,79.46
2022-08-28T04:13:48.608Z,79.36
2022-08-28T04:14:48.614Z,79.36
2022-08-28T04:15:48.604Z,79.60
2022-08-28T04:16:48.649Z,80.10
2022-08-28T04:17:48.567Z,80.00
2022-08-28T04:18:48.554Z,80.00
2022-08-28T04:19:48.538Z,80.20
2022-08-28T04:20:48.555Z,80.74
2022-08-28T04:21:48.568Z,80.30
2022-08-28T04:22:48.536Z,80.24
2022-08-28T04:23:49.518Z,80.44
2022-08-28T04:24:48.505Z,81.38
2022-08-28T04:25:48.495Z,81.55
2022-08-28T04:26:48.480Z,81.55
2022-08-28T04:27:48.469Z,81.75
2022-08-28T04:28:48.470Z,81.35
2022-08-28T04:29:48.442Z,81.65
2022-08-28T04:30:48.461Z,81.38
2022-08-28T04:31:48.491Z,81.89
2022-08-28T04:32:48.414Z,81.18
2022-08-28T04:33:48.555Z,81.18
2022-08-28T04:34:48.415Z,81.48
2022-08-28T04:35:48.389Z,82.50
2022-08-28T04:36:48.377Z,81.89
2022-08-28T04:37:48.394Z,82.03
2022-08-28T04:38:49.353Z,81.79
2022-08-28T04:39:48.342Z,81.52
2022-08-28T04:40:48.347Z,81.12
2022-08-28T04:41:48.334Z,81.73
2022-08-28T04:42:48.337Z,81.68
2022-08-28T04:43:48.308Z,81.52
2022-08-28T04:44:48.300Z,81.42
2022-08-28T04:45:48.352Z,81.93
2022-08-28T04:46:48.360Z,81.02
2022-08-28T04:47:48.260Z,81.02
2022-08-28T04:48:48.268Z,80.92
2022-08-28T04:49:48.254Z,80.82
2022-08-28T04:50:48.260Z,80.62
2022-08-28T04:51:48.241Z,80.62
2022-08-28T04:52:48.216Z,80.21
2022-08-28T04:53:48.202Z,79.91
2022-08-28T04:54:48.241Z,80.11
2022-08-28T04:55:53.759Z,79.97
2022-08-28T04:56:48.185Z,78.96
2022-08-28T04:57:48.174Z,79.06
2022-08-28T04:58:48.166Z,78.86
2022-08-28T04:59:48.183Z,78.42
2022-08-28T05:00:48.176Z,78.42
2022-08-28T05:01:48.173Z,78.42
2022-08-28T05:02:48.125Z,77.51
2022-08-28T05:03:48.144Z,78.32
2022-08-28T05:04:48.102Z,77.31
2022-08-28T05:05:48.089Z,77.28
2022-08-28T05:06:48.084Z,77.38
2022-08-28T05:07:48.080Z,76.87
2022-08-28T05:08:48.086Z,76.64
2022-08-28T05:09:48.060Z,75.83
2022-08-28T05:10:48.039Z,75.33
2022-08-28T05:11:48.047Z,75.43
2022-08-28T05:12:48.019Z,75.43
2022-08-28T05:13:48.045Z,75.59
2022-08-28T05:14:47.996Z,75.59
2022-08-28T05:15:47.991Z,75.19
2022-08-28T05:16:47.986Z,75.09
2022-08-28T05:17:47.986Z,74.08
2022-08-28T05:18:47.982Z,75.29
2022-08-28T05:19:47.961Z,74.45
2022-08-28T05:20:47.936Z,73.44
2022-08-28T05:21:47.976Z,73.31
2022-08-28T05:22:47.928Z,72.91
2022-08-28T05:23:47.914Z,72.81
2022-08-28T05:24:47.903Z,73.00
2022-08-28T05:25:47.899Z,72.87
2022-08-28T05:26:48.159Z,72.71
2022-08-28T05:27:47.874Z,72.61
2022-08-28T05:28:47.887Z,72.50
2022-08-28T05:29:47.870Z,72.91
2022-08-28T05:30:47.849Z,72.71
2022-08-28T05:31:47.973Z,73.61
2022-08-28T05:32:47.827Z,73.31
2022-08-28T05:33:47.822Z,73.18
2022-08-28T05:34:47.832Z,72.91
2022-08-28T05:35:47.794Z,72.30
2022-08-28T05:36:47.870Z,71.70
2022-08-28T05:37:47.786Z,73.24
2022-08-28T05:38:47.772Z,73.44
2022-08-28T05:39:47.911Z,73.44
2022-08-28T05:40:47.750Z,73.24
2022-08-28T05:41:47.740Z,72.91
2022-08-28T05:42:47.735Z,73.00
2022-08-28T05:43:47.720Z,72.50
2022-08-28T05:44:47.730Z,71.53
2022-08-28T05:45:47.753Z,72.10
2022-08-28T05:46:47.751Z,72.20
2022-08-28T05:47:47.671Z,71.94
2022-08-28T05:48:47.685Z,71.40
2022-08-28T05:49:47.656Z,72.41
2022-08-28T05:50:48.204Z,71.80
2022-08-28T05:51:47.634Z,72.20
2022-08-28T05:52:47.633Z,71.60
2022-08-28T05:53:47.639Z,71.90
2022-08-28T05:54:47.630Z,71.36
2022-08-28T05:55:51.641Z,71.36
2022-08-28T05:56:47.618Z,70.63
2022-08-28T05:57:47.583Z,70.32
2022-08-28T05:58:47.574Z,69.35
2022-08-28T05:59:47.558Z,69.12
2022-08-28T06:00:47.582Z,68.19
2022-08-28T06:01:47.625Z,66.65
2022-08-28T06:02:47.534Z,66.55
2022-08-28T06:03:47.592Z,66.19
2022-08-28T06:04:47.510Z,64.25
2022-08-28T06:05:47.530Z,64.15
2022-08-28T06:06:47.508Z,62.70
2022-08-28T06:07:47.509Z,60.93
2022-08-28T06:08:58.269Z,59.88
2022-08-28T06:09:48.479Z,59.15
2022-08-28T06:10:50.816Z,59.38
2022-08-28T06:11:47.492Z,59.92
2022-08-28T06:12:47.445Z,57.70
2022-08-28T06:13:47.444Z,57.54
2022-08-28T06:14:47.426Z,56.87
2022-08-28T06:15:47.455Z,56.87
2022-08-28T06:16:47.416Z,57.20
2022-08-28T06:17:47.428Z,57.10
2022-08-28T06:18:47.380Z,56.38
2022-08-28T06:19:47.371Z,57.76
2022-08-28T06:20:47.379Z,58.75
2022-08-28T06:21:47.358Z,57.73
2022-08-28T06:22:47.372Z,59.18
2022-08-28T06:23:47.351Z,59.31
2022-08-28T06:24:47.353Z,60.63
2022-08-28T06:25:47.319Z,59.98
2022-08-28T06:26:47.308Z,59.22
2022-08-28T06:27:47.318Z,57.37
2022-08-28T06:28:47.296Z,57.67
2022-08-28T06:29:47.303Z,57.05
2022-08-28T06:31:17.964Z,56.79
2022-08-28T06:31:48.300Z,55.55
2022-08-28T06:32:47.254Z,53.36
2022-08-28T06:33:47.242Z,53.96
2022-08-28T06:34:47.242Z,54.46
2022-08-28T06:35:47.237Z,54.78
2022-08-28T06:36:51.801Z,53.26
2022-08-28T06:37:49.198Z,54.48
2022-08-28T06:38:47.193Z,55.67
2022-08-28T06:39:47.188Z,55.82
2022-08-28T06:40:47.200Z,57.40
2022-08-28T06:41:47.169Z,57.95
2022-08-28T06:42:47.159Z,58.91
2022-08-28T06:43:47.150Z,60.63
2022-08-28T06:44:47.131Z,60.89
2022-08-28T06:45:47.215Z,62.42
2022-08-28T06:46:47.194Z,63.35
2022-08-28T06:47:47.112Z,63.28
2022-08-28T06:48:47.110Z,63.61
2022-08-28T06:49:47.107Z,64.31
2022-08-28T06:50:47.088Z,65.05
2022-08-28T06:51:47.095Z,66.95
2022-08-28T06:52:47.063Z,65.48
2022-08-28T06:53:47.052Z,65.61
2022-08-28T06:54:55.632Z,66.52
2022-08-28T06:55:47.048Z,67.68
2022-08-28T06:56:47.028Z,68.79
2022-08-28T06:57:47.019Z,68.45
2022-08-28T06:58:50.110Z,67.45
2022-08-28T06:59:46.992Z,69.15
2022-08-28T07:00:46.989Z,68.05
2022-08-28T07:01:47.224Z,67.25
2022-08-28T07:02:47.044Z,68.02
2022-08-28T07:03:46.976Z,67.92
2022-08-28T07:04:46.971Z,66.11
2022-08-28T07:05:46.957Z,66.48
2022-08-28T07:06:50.361Z,64.62
2022-08-28T07:07:47.923Z,64.42
2022-08-28T07:08:46.913Z,64.12
2022-08-28T07:09:46.930Z,65.22
2022-08-28T07:10:46.891Z,63.81
2022-08-28T07:12:18.788Z,64.69
2022-08-28T07:12:46.883Z,63.18
2022-08-28T07:13:46.883Z,62.75
2022-08-28T07:14:46.899Z,63.35
2022-08-28T07:15:46.918Z,62.65
2022-08-28T07:16:46.872Z,62.78
2022-08-28T07:17:46.855Z,63.06
2022-08-28T07:18:46.832Z,63.48
2022-08-28T07:19:46.826Z,63.39
2022-08-28T07:20:46.813Z,63.21
2022-08-28T07:21:46.818Z,64.54
2022-08-28T07:22:46.791Z,64.45
2022-08-28T07:23:46.783Z,64.12
2022-08-28T07:24:46.773Z,63.21
2022-08-28T07:25:46.773Z,63.61
2022-08-28T07:26:46.777Z,64.54
2022-08-28T07:27:46.751Z,64.65
2022-08-28T07:28:46.725Z,65.08
2022-08-28T07:29:46.723Z,65.25
2022-08-28T07:30:46.755Z,64.28
2022-08-28T07:31:46.707Z,65.18
2022-08-28T07:32:46.731Z,64.15
2022-08-28T07:33:46.687Z,64.59
2022-08-28T07:34:47.704Z,61.95
2022-08-28T07:35:46.665Z,60.57
2022-08-28T07:36:46.669Z,59.05
2022-08-28T07:37:46.676Z,57.00
2022-08-28T07:38:46.626Z,56.38
2022-08-28T07:39:46.642Z,56.32
2022-08-28T07:40:46.620Z,55.40
2022-08-28T07:41:46.621Z,54.72
2022-08-28T07:42:46.597Z,52.19
2022-08-28T07:43:46.590Z,52.31
2022-08-28T07:44:46.603Z,51.10
2022-08-28T07:45:46.630Z,52.69
2022-08-28T07:46:46.566Z,50.60
2022-08-28T07:47:46.554Z,50.65
2022-08-28T07:48:46.548Z,51.35
2022-08-28T07:49:46.557Z,51.17
2022-08-28T07:50:46.514Z,52.44
2022-08-28T07:51:46.805Z,53.09
2022-08-28T07:52:46.529Z,55.46
2022-08-28T07:53:46.502Z,56.41
2022-08-28T07:54:46.500Z,58.14
2022-08-28T07:55:46.474Z,58.06
2022-08-28T07:56:46.509Z,58.19
2022-08-28T07:57:46.491Z,58.89
2022-08-28T07:58:46.672Z,58.75
2022-08-28T07:59:46.451Z,60.45
2022-08-28T08:00:46.440Z,59.85
2022-08-28T08:01:46.641Z,57.14
2022-08-28T08:02:46.438Z,57.57
2022-08-28T08:03:46.459Z,58.04
2022-08-28T08:04:46.407Z,56.30
2022-08-28T08:05:46.392Z,53.36
2022-08-28T08:06:46.377Z,52.34
2022-08-28T08:07:46.418Z,51.87
2022-08-28T08:08:46.386Z,50.56
2022-08-28T08:09:46.348Z,50.83
2022-08-28T08:10:46.329Z,49.32
2022-08-28T08:11:46.335Z,49.37
2022-08-28T08:12:46.321Z,48.35
2022-08-28T08:13:46.335Z,48.27
2022-08-28T08:14:46.294Z,48.99
2022-08-28T08:15:46.323Z,50.28
2022-08-28T08:16:46.274Z,49.21
2022-08-28T08:17:46.321Z,51.20
2022-08-28T08:18:46.259Z,50.45
2022-08-28T08:19:46.249Z,51.20
2022-08-28T08:20:46.242Z,53.34
2022-08-28T08:21:46.258Z,53.99
2022-08-28T08:22:46.223Z,53.59
2022-08-28T08:23:46.208Z,53.59
2022-08-28T08:24:46.229Z,53.31
2022-08-28T08:25:46.201Z,54.27
2022-08-28T08:26:47.011Z,54.69
2022-08-28T08:27:47.172Z,55.41
2022-08-28T08:28:46.162Z,56.14
2022-08-28T08:29:46.171Z,56.74
2022-08-28T08:30:46.177Z,55.26
2022-08-28T08:31:46.164Z,53.06
2022-08-28T08:32:46.150Z,52.51
2022-08-28T08:33:46.122Z,50.78
2022-08-28T08:34:46.102Z,50.28
2022-08-28T08:35:46.092Z,49.29
2022-08-28T08:36:46.081Z,50.56
2022-08-28T08:37:46.110Z,49.84
2022-08-28T08:38:46.098Z,48.52
2022-08-28T08:39:46.060Z,48.74
2022-08-28T08:40:46.087Z,48.84
2022-08-28T08:41:46.035Z,48.92
2022-08-28T08:42:46.062Z,48.25
2022-08-28T08:43:46.036Z,48.54
2022-08-28T08:44:46.082Z,49.32
2022-08-28T08:45:46.018Z,49.14
2022-08-28T08:46:46.076Z,49.36
2022-08-28T08:47:46.007Z,50.13
2022-08-28T08:48:45.988Z,48.14
2022-08-28T08:49:45.992Z,49.07
2022-08-28T08:50:45.960Z,49.14
2022-08-28T08:51:45.953Z,48.14
2022-08-28T08:52:45.945Z,48.30
2022-08-28T08:53:45.929Z,48.23
2022-08-28T08:54:45.952Z,47.74
2022-08-28T08:55:45.915Z,48.21
2022-08-28T08:56:45.941Z,47.31
2022-08-28T08:57:49.245Z,46.35
2022-08-28T08:58:45.936Z,46.57
2022-08-28T08:59:45.899Z,46.77
2022-08-28T09:00:45.869Z,46.57
2022-08-28T09:01:45.924Z,47.46
2022-08-28T09:02:45.846Z,46.67
2022-08-28T09:03:45.887Z,47.06
2022-08-28T09:04:45.849Z,46.47
2022-08-28T09:05:45.846Z,47.24
2022-08-28T09:06:45.907Z,44.96
2022-08-28T09:07:48.269Z,43.06
2022-08-28T09:08:45.791Z,44.27
2022-08-28T09:09:45.795Z,44.07
2022-08-28T09:10:45.818Z,43.10
2022-08-28T09:11:45.776Z,46.49
2022-08-28T09:12:46.760Z,44.75
2022-08-28T09:13:45.750Z,45.56
2022-08-28T09:14:45.730Z,44.67
2022-08-28T09:15:49.933Z,45.51
2022-08-28T09:16:47.767Z,45.09
2022-08-28T09:17:45.699Z,44.85
2022-08-28T09:18:45.696Z,44.13
2022-08-28T09:19:45.706Z,44.04
2022-08-28T09:20:45.686Z,44.33
2022-08-28T09:21:45.699Z,43.76
2022-08-28T09:22:45.677Z,45.74
2022-08-28T09:23:45.658Z,46.22
2022-08-28T09:24:45.646Z,46.69
2022-08-28T09:25:45.643Z,44.71
2022-08-28T09:26:45.622Z,43.60
2022-08-28T09:27:45.646Z,44.19
2022-08-28T09:28:45.622Z,46.37
2022-08-28T09:29:45.595Z,45.26
2022-08-28T09:30:45.627Z,45.65
2022-08-28T09:31:45.587Z,43.48
2022-08-28T09:32:45.582Z,44.29
2022-08-28T09:33:45.584Z,43.91
2022-08-28T09:34:45.549Z,42.85
2022-08-28T09:35:45.543Z,43.38
2022-08-28T09:36:45.552Z,43.66
2022-08-28T09:37:45.538Z,44.75
2022-08-28T09:38:45.543Z,45.82
2022-08-28T09:39:48.794Z,44.01
2022-08-28T09:40:46.542Z,42.43
2022-08-28T09:41:45.553Z,45.05
2022-08-28T09:42:45.481Z,44.55
2022-08-28T09:43:45.490Z,44.75
2022-08-28T09:44:45.451Z,45.32
2022-08-28T09:45:45.483Z,45.52
2022-08-28T09:46:45.496Z,44.45
2022-08-28T09:47:46.320Z,43.44
2022-08-28T09:48:45.423Z,44.31
2022-08-28T09:49:45.414Z,44.21
2022-08-28T09:50:45.434Z,44.41
2022-08-28T09:51:45.407Z,45.72
2022-08-28T09:52:45.409Z,42.96
2022-08-28T09:53:45.376Z,44.70
2022-08-28T09:54:45.380Z,43.24
2022-08-28T09:55:45.360Z,44.44
2022-08-28T09:56:45.367Z,45.67
2022-08-28T09:57:45.332Z,45.67
2022-08-28T09:58:45.325Z,45.97
2022-08-28T09:59:45.324Z,46.55
2022-08-28T10:00:45.313Z,45.37
2022-08-28T10:01:45.491Z,45.85
2022-08-28T10:02:45.298Z,46.17
2022-08-28T10:03:45.278Z,46.35
2022-08-28T10:04:45.464Z,46.92
2022-08-28T10:05:45.263Z,44.93
2022-08-28T10:06:45.272Z,46.45
2022-08-28T10:07:45.226Z,46.55
2022-08-28T10:08:45.221Z,46.15
2022-08-28T10:09:46.754Z,46.84
2022-08-28T10:10:45.204Z,46.77
2022-08-28T10:11:45.224Z,46.37
2022-08-28T10:12:45.208Z,46.09
2022-08-28T10:13:45.184Z,46.51
2022-08-28T10:14:45.190Z,48.21
2022-08-28T10:15:45.212Z,47.89
2022-08-28T10:16:45.173Z,47.66
2022-08-28T10:17:45.186Z,46.99
2022-08-28T10:18:45.131Z,46.87
2022-08-28T10:19:45.125Z,46.87
2022-08-28T10:20:45.129Z,46.77
2022-08-28T10:21:45.106Z,46.89
2022-08-28T10:22:45.122Z,47.69
2022-08-28T10:23:45.081Z,48.19
2022-08-28T10:24:45.103Z,48.38
2022-08-28T10:25:45.065Z,46.89
2022-08-28T10:26:45.088Z,46.69
2022-08-28T10:27:45.040Z,46.61
2022-08-28T10:28:45.027Z,46.24
2022-08-28T10:29:45.027Z,46.94
2022-08-28T10:30:45.028Z,47.79
2022-08-28T10:31:45.034Z,47.39
2022-08-28T10:32:44.987Z,45.10
2022-08-28T10:33:45.026Z,46.89
2022-08-28T10:34:44.975Z,47.59
2022-08-28T10:35:44.973Z,46.97
2022-08-28T10:36:44.963Z,47.27
2022-08-28T10:37:44.961Z,48.44
2022-08-28T10:38:49.483Z,45.36
2022-08-28T10:39:45.925Z,44.78
2022-08-28T10:40:44.922Z,45.90
2022-08-28T10:41:44.898Z,47.75
2022-08-28T10:42:45.899Z,48.05
2022-08-28T10:43:44.920Z,46.66
2022-08-28T10:44:44.875Z,47.24
2022-08-28T10:45:44.861Z,50.00
2022-08-28T10:46:44.881Z,47.59
2022-08-28T10:47:44.847Z,46.37
2022-08-28T10:48:44.854Z,46.79
2022-08-28T10:49:44.835Z,45.79
2022-08-28T10:50:44.829Z,46.61
2022-08-28T10:51:44.806Z,47.21
2022-08-28T10:52:44.795Z,47.45
2022-08-28T10:53:44.817Z,48.25
2022-08-28T10:54:44.814Z,47.58
2022-08-28T10:55:44.780Z,48.58
2022-08-28T10:56:44.762Z,48.95
2022-08-28T10:57:44.749Z,48.05
2022-08-28T10:58:44.772Z,48.63
2022-08-28T10:59:44.739Z,48.25
2022-08-28T11:00:44.754Z,48.95
2022-08-28T11:01:44.848Z,49.35
2022-08-28T11:02:44.786Z,47.78
2022-08-28T11:03:44.690Z,48.70
2022-08-28T11:04:45.705Z,48.97
2022-08-28T11:05:53.432Z,48.65
2022-08-28T11:06:46.729Z,48.95
2022-08-28T11:07:44.675Z,48.73
2022-08-28T11:08:44.661Z,49.10
2022-08-28T11:09:44.652Z,47.39
2022-08-28T11:10:44.646Z,47.69
2022-08-28T11:11:44.650Z,47.11
2022-08-28T11:12:44.650Z,48.28
2022-08-28T11:13:44.589Z,47.66
2022-08-28T11:14:48.477Z,47.37
2022-08-28T11:15:44.590Z,47.54
2022-08-28T11:16:44.642Z,47.22
2022-08-28T11:17:44.581Z,46.83
2022-08-28T11:18:44.560Z,46.33
2022-08-28T11:19:46.225Z,45.53
2022-08-28T11:20:44.548Z,46.37
2022-08-28T11:21:44.535Z,47.09
2022-08-28T11:22:44.559Z,47.79
2022-08-28T11:23:44.522Z,46.81
2022-08-28T11:24:44.509Z,47.89
2022-08-28T11:25:44.521Z,48.07
2022-08-28T11:26:44.502Z,46.89
2022-08-28T11:27:44.498Z,47.41
2022-08-28T11:28:44.523Z,49.01
2022-08-28T11:29:44.458Z,46.61
2022-08-28T11:30:44.489Z,46.64
2022-08-28T11:31:44.436Z,47.24
2022-08-28T11:32:46.974Z,47.71
2022-08-28T11:33:44.447Z,47.49
2022-08-28T11:34:44.437Z,47.41
2022-08-28T11:35:44.394Z,46.81
2022-08-28T11:36:44.399Z,47.83
2022-08-28T11:37:44.378Z,47.81
2022-08-28T11:38:44.378Z,47.71
2022-08-28T11:39:44.374Z,46.91
2022-08-28T11:40:44.357Z,46.59
2022-08-28T11:41:44.336Z,46.17
2022-08-28T11:42:44.359Z,46.77
2022-08-28T11:43:44.333Z,46.39
2022-08-28T11:44:44.351Z,46.77
2022-08-28T11:45:46.741Z,46.27
2022-08-28T11:46:44.410Z,45.97
2022-08-28T11:47:44.318Z,46.89
2022-08-28T11:48:44.271Z,47.96
2022-08-28T11:49:44.310Z,46.87
2022-08-28T11:50:44.322Z,46.95
2022-08-28T11:51:44.262Z,46.05
2022-08-28T11:52:44.291Z,44.96
2022-08-28T11:53:44.231Z,44.78
2022-08-28T11:54:44.316Z,45.60
2022-08-28T11:55:44.242Z,46.08
2022-08-28T11:56:44.204Z,44.80
2022-08-28T11:57:44.201Z,46.59
2022-08-28T11:58:44.212Z,46.04
2022-08-28T11:59:44.235Z,45.64
2022-08-28T12:00:44.169Z,45.64
2022-08-28T12:01:44.144Z,46.61
2022-08-28T12:02:44.307Z,46.89
2022-08-28T12:03:44.162Z,46.79
2022-08-28T12:04:44.219Z,47.02
2022-08-28T12:05:45.331Z,47.11
2022-08-28T12:06:44.120Z,46.22
2022-08-28T12:07:44.099Z,45.44
2022-08-28T12:08:44.092Z,47.11
2022-08-28T12:09:44.070Z,46.73
2022-08-28T12:10:44.108Z,47.66
2022-08-28T12:11:44.067Z,48.25
2022-08-28T12:12:44.062Z,49.33
2022-08-28T12:13:44.039Z,46.91
2022-08-28T12:14:44.054Z,47.81
2022-08-28T12:15:44.089Z,47.19
2022-08-28T12:16:44.028Z,46.67
2022-08-28T12:17:44.012Z,46.79
2022-08-28T12:18:43.993Z,46.37
2022-08-28T12:19:55.401Z,46.67
2022-08-28T12:20:44.976Z,46.27
2022-08-28T12:21:43.959Z,45.75
2022-08-28T12:22:43.955Z,47.14
2022-08-28T12:23:43.930Z,47.64
2022-08-28T12:24:43.960Z,45.65
2022-08-28T12:25:43.942Z,45.75
2022-08-28T12:26:43.906Z,46.23
2022-08-28T12:27:43.894Z,45.73
2022-08-28T12:28:44.908Z,45.51
2022-08-28T12:29:43.883Z,44.71
2022-08-28T12:30:43.918Z,44.52
2022-08-28T12:31:43.888Z,44.92
2022-08-28T12:32:43.864Z,44.99
2022-08-28T12:33:43.843Z,44.70
2022-08-28T12:34:43.865Z,45.79
2022-08-28T12:35:44.042Z,43.70
2022-08-28T12:36:47.817Z,44.40
2022-08-28T12:37:52.374Z,42.72
2022-08-28T12:38:44.817Z,44.93
2022-08-28T12:39:43.787Z,44.93
2022-08-28T12:40:43.869Z,46.45
2022-08-28T12:41:43.773Z,46.92
2022-08-28T12:42:43.796Z,44.74
2022-08-28T12:43:46.562Z,43.84
2022-08-28T12:44:43.740Z,43.54
2022-08-28T12:45:43.758Z,44.85
2022-08-28T12:46:43.717Z,46.05
2022-08-28T12:47:43.744Z,45.95
2022-08-28T12:48:43.725Z,45.67
2022-08-28T12:49:43.708Z,45.37
2022-08-28T12:50:43.680Z,44.98
2022-08-28T12:51:43.675Z,46.95
2022-08-28T12:52:43.660Z,46.35